Time;durP1;ratioP1;P1;durP2;ratioP2;P2;SDS_P1;SDS_P2;PMS_P1;PMS_P2;Temp;Humidity;BMP_temperature;BMP_pressure;BME280_temperature;BME280_humidity;BME280_pressure;Samples;Min_cycle;Max_cycle;Signal;HPM_P1;HPM_P2
2021/10/23 00:02:13;;;;;;;3.92;0.93;;;;;;;10.49;74.23;102560.47;4922321;28;20050;-68
2021/10/23 00:04:39;;;;;;;4.38;0.90;;;;;;;10.51;73.87;102560.53;4912338;28;20082;-68
2021/10/23 00:07:04;;;;;;;7.00;1.13;;;;;;;10.57;73.82;102568.59;4899966;28;20510;-69
2021/10/23 00:09:30;;;;;;;9.20;0.95;;;;;;;10.58;73.71;102559.97;4913831;28;20048;-70
2021/10/23 00:11:55;;;;;;;5.18;1.00;;;;;;;10.60;73.22;102563.53;4913610;28;20035;-69
2021/10/23 00:14:20;;;;;;;8.02;1.20;;;;;;;10.61;73.55;102559.19;4914627;28;20317;-69
2021/10/23 00:16:46;;;;;;;5.35;0.90;;;;;;;10.66;73.93;102568.09;4915375;28;20694;-69
2021/10/23 00:19:12;;;;;;;3.65;0.85;;;;;;;10.66;73.83;102568.09;4905156;28;20030;-69
2021/10/23 00:21:37;;;;;;;4.82;1.02;;;;;;;10.67;72.90;102570.78;4920692;28;20118;-70
2021/10/23 00:24:03;;;;;;;4.65;0.93;;;;;;;10.66;72.51;102568.09;4925755;28;20059;-70
2021/10/23 00:26:28;;;;;;;4.53;1.10;;;;;;;10.64;73.35;102568.03;4930571;28;20444;-68
2021/10/23 00:28:53;;;;;;;6.68;1.02;;;;;;;10.61;73.42;102570.53;4895812;28;20104;-67
2021/10/23 00:31:19;;;;;;;5.38;1.10;;;;;;;10.55;72.88;102570.28;4905150;28;20750;-68
2021/10/23 00:33:44;;;;;;;7.18;1.08;;;;;;;10.57;73.52;102569.50;4918599;28;20079;-69
2021/10/23 00:36:11;;;;;;;4.43;1.00;;;;;;;10.60;73.74;102570.47;4912837;28;20058;-68
2021/10/23 00:38:36;;;;;;;5.65;1.10;;;;;;;10.60;73.65;102565.25;4915767;28;20047;-69
2021/10/23 00:41:02;;;;;;;5.68;1.05;;;;;;;10.63;73.83;102563.63;4914221;28;20057;-69
2021/10/23 00:43:27;;;;;;;4.32;1.00;;;;;;;10.64;74.03;102556.69;4905128;28;20556;-69
2021/10/23 00:45:53;;;;;;;4.47;1.00;;;;;;;10.65;74.36;102558.47;4920466;28;20051;-69
2021/10/23 00:48:19;;;;;;;5.45;1.00;;;;;;;10.66;73.99;102557.66;4918648;28;20047;-69
2021/10/23 00:50:48;;;;;;;8.13;1.58;;;;;;;10.64;74.01;102556.69;4919295;28;20401;-69
2021/10/23 00:53:14;;;;;;;6.45;0.90;;;;;;;10.63;74.41;102549.69;4913149;28;22040;-69
2021/10/23 00:55:41;;;;;;;7.45;1.08;;;;;;;10.62;74.63;102550.53;4918773;28;20039;-70
2021/10/23 00:58:06;;;;;;;7.57;1.10;;;;;;;10.65;74.72;102567.19;4912395;28;20052;-69
2021/10/23 01:00:32;;;;;;;5.05;1.13;;;;;;;10.66;74.86;102565.50;4921834;28;20037;-69
2021/10/23 01:02:58;;;;;;;6.43;1.02;;;;;;;10.68;74.75;102556.88;4901718;28;20047;-69
2021/10/23 01:05:24;;;;;;;4.68;0.90;;;;;;;10.67;74.47;102560.34;4908950;28;20145;-68
2021/10/23 01:07:49;;;;;;;6.40;1.13;;;;;;;10.60;73.20;102567.84;4913149;28;20054;-68
2021/10/23 01:10:14;;;;;;;6.68;1.33;;;;;;;10.69;72.37;102569.09;4897306;28;20144;-68
2021/10/23 01:12:41;;;;;;;6.93;1.08;;;;;;;10.72;71.24;102570.94;4913029;28;20195;-68
2021/10/23 01:15:21;;;;;;;3.08;0.90;;;;;;;10.73;70.59;102567.50;4889894;28;20518;-70
2021/10/23 01:17:48;;;;;;;6.30;1.30;;;;;;;10.75;70.25;102564.13;4923266;28;20038;-68
2021/10/23 01:20:13;;;;;;;3.63;0.90;;;;;;;10.74;69.75;102557.13;4904746;28;20066;-68
2021/10/23 01:22:39;;;;;;;3.55;1.00;;;;;;;10.74;69.56;102561.44;4908407;28;20073;-69
2021/10/23 01:25:05;;;;;;;3.60;0.90;;;;;;;10.69;69.57;102565.59;4899229;28;20035;-68
2021/10/23 01:27:31;;;;;;;4.13;1.00;;;;;;;10.56;69.27;102556.38;4910802;28;20047;-68
2021/10/23 01:29:56;;;;;;;2.28;0.70;;;;;;;10.39;69.87;102553.09;4919984;28;20054;-69
2021/10/23 01:32:21;;;;;;;6.15;0.90;;;;;;;10.25;70.45;102556.84;4913938;28;20051;-69
2021/10/23 01:34:48;;;;;;;4.38;0.90;;;;;;;10.18;70.24;102561.78;4923705;28;20054;-68
2021/10/23 01:37:14;;;;;;;2.53;0.80;;;;;;;10.14;71.18;102568.53;4894443;28;20133;-68
2021/10/23 01:39:39;;;;;;;3.35;0.95;;;;;;;10.13;71.37;102556.31;4914504;28;20737;-69
2021/10/23 01:42:05;;;;;;;3.38;0.90;;;;;;;10.16;71.67;102551.25;4911963;28;20047;-69
2021/10/23 01:44:34;;;;;;;4.28;1.08;;;;;;;10.21;73.01;102554.06;4914851;28;20054;-69
2021/10/23 01:47:00;;;;;;;5.03;1.00;;;;;;;10.22;73.12;102558.47;4908041;28;20035;-69
2021/10/23 01:49:26;;;;;;;3.78;0.90;;;;;;;10.23;72.52;102563.75;4916922;28;20039;-69
2021/10/23 01:51:51;;;;;;;4.10;0.77;;;;;;;10.24;72.07;102562.03;4904194;28;20632;-69
2021/10/23 01:54:17;;;;;;;7.25;1.40;;;;;;;10.12;72.08;102562.38;4916418;28;20039;-68
2021/10/23 01:56:42;;;;;;;5.25;1.00;;;;;;;9.95;72.14;102556.44;4916017;28;20140;-70
2021/10/23 01:59:09;;;;;;;3.58;0.95;;;;;;;9.80;72.13;102560.09;4903767;28;20604;-68
2021/10/23 02:01:35;;;;;;;4.00;0.90;;;;;;;9.60;72.67;102552.31;4907627;28;20055;-68
2021/10/23 02:04:00;;;;;;;3.53;1.00;;;;;;;9.47;72.92;102554.28;4919478;28;20043;-68
2021/10/23 02:06:26;;;;;;;2.88;0.90;;;;;;;9.33;73.55;102559.78;4909050;28;20421;-68
2021/10/23 02:08:51;;;;;;;3.42;1.00;;;;;;;9.18;74.03;102563.41;4911901;28;20051;-68
2021/10/23 02:11:18;;;;;;;5.38;0.95;;;;;;;9.09;74.21;102566.47;4903812;28;20039;-69
2021/10/23 02:13:43;;;;;;;6.85;1.10;;;;;;;9.00;73.80;102555.66;4914192;28;20453;-68
2021/10/23 02:16:09;;;;;;;5.45;0.93;;;;;;;8.91;74.38;102550.88;4912602;28;20046;-70
2021/10/23 02:18:35;;;;;;;4.68;0.82;;;;;;;8.86;74.07;102568.00;4914008;28;20047;-68
2021/10/23 02:21:00;;;;;;;2.95;0.70;;;;;;;8.82;74.12;102567.78;4894277;28;20042;-68
2021/10/23 02:23:28;;;;;;;2.10;0.80;;;;;;;8.75;74.34;102566.59;4916039;28;20043;-70
2021/10/23 02:25:53;;;;;;;3.92;0.90;;;;;;;8.67;74.75;102574.84;4917819;28;20065;-68
2021/10/23 02:28:18;;;;;;;3.20;1.02;;;;;;;8.63;74.59;102578.13;4913450;28;20696;-69
2021/10/23 02:30:44;;;;;;;3.33;0.80;;;;;;;8.59;74.88;102571.91;4914406;28;20054;-69
2021/10/23 02:33:10;;;;;;;3.55;1.40;;;;;;;8.54;74.79;102571.66;4893898;28;20520;-69
2021/10/23 02:35:35;;;;;;;2.95;0.95;;;;;;;8.49;75.44;102573.13;4915406;28;20489;-69
2021/10/23 02:38:00;;;;;;;3.35;1.10;;;;;;;8.46;75.39;102566.91;4907740;28;20047;-69
2021/10/23 02:40:26;;;;;;;3.05;1.00;;;;;;;8.46;75.28;102562.59;4910378;28;20106;-69
2021/10/23 02:42:51;;;;;;;4.18;0.95;;;;;;;8.44;75.59;102564.22;4911009;28;20039;-68
2021/10/23 02:45:17;;;;;;;3.60;0.80;;;;;;;8.41;75.45;102558.91;4909080;28;20043;-68
2021/10/23 02:47:42;;;;;;;4.63;1.10;;;;;;;8.39;75.23;102567.44;4913009;28;20035;-68
2021/10/23 02:50:09;;;;;;;3.67;1.00;;;;;;;8.35;75.16;102563.81;4919795;28;20493;-68
2021/10/23 02:52:34;;;;;;;2.35;1.02;;;;;;;8.29;75.01;102567.75;4914028;28;20467;-70
2021/10/23 02:54:59;;;;;;;3.55;1.00;;;;;;;8.22;75.26;102565.69;4912354;28;20039;-69
2021/10/23 02:57:25;;;;;;;4.80;1.00;;;;;;;8.23;75.07;102565.75;4902984;28;20050;-70
2021/10/23 02:59:50;;;;;;;5.43;1.10;;;;;;;8.14;75.53;102563.59;4912438;28;20054;-69
2021/10/23 03:02:16;;;;;;;3.88;0.90;;;;;;;8.12;75.49;102561.72;4912055;28;21301;-69
2021/10/23 03:04:41;;;;;;;5.07;1.20;;;;;;;8.07;75.46;102573.56;4912488;28;20077;-69
2021/10/23 03:07:07;;;;;;;5.18;1.05;;;;;;;8.00;75.77;102576.69;4897215;28;20589;-69
2021/10/23 03:09:32;;;;;;;5.63;1.20;;;;;;;7.98;75.44;102580.91;4907849;28;20102;-69
2021/10/23 03:11:58;;;;;;;4.50;1.05;;;;;;;7.92;75.68;102584.09;4909910;28;20720;-69
2021/10/23 03:14:23;;;;;;;4.88;1.10;;;;;;;7.88;75.97;102576.06;4914830;28;20130;-69
2021/10/23 03:16:49;;;;;;;7.63;1.45;;;;;;;7.83;75.94;102578.41;4907974;28;20040;-68
2021/10/23 03:19:14;;;;;;;4.68;1.10;;;;;;;7.81;76.21;102587.81;4912312;28;21848;-68
2021/10/23 03:21:40;;;;;;;3.90;1.00;;;;;;;7.77;75.79;102588.50;4911133;28;20046;-69
2021/10/23 03:24:05;;;;;;;2.28;0.88;;;;;;;7.79;75.52;102593.78;4895041;28;20085;-69
2021/10/23 03:26:30;;;;;;;1.92;0.80;;;;;;;7.79;75.26;102597.25;4896805;28;20058;-69
2021/10/23 03:28:57;;;;;;;3.55;1.00;;;;;;;7.77;75.56;102596.28;4901593;28;20130;-68
2021/10/23 03:31:22;;;;;;;3.70;0.85;;;;;;;7.79;75.36;102593.78;4914918;28;20098;-69
2021/10/23 03:33:47;;;;;;;2.45;1.02;;;;;;;7.75;75.92;102593.59;4912205;28;20043;-69
2021/10/23 03:36:13;;;;;;;4.07;1.10;;;;;;;7.72;75.97;102589.97;4912067;28;20447;-68
2021/10/23 03:38:38;;;;;;;4.85;1.20;;;;;;;7.72;75.96;102605.53;4913736;28;20061;-68
2021/10/23 03:41:03;;;;;;;6.28;1.30;;;;;;;7.66;76.26;102603.50;4903855;28;20063;-68
2021/10/23 03:43:32;;;;;;;3.75;1.30;;;;;;;7.65;75.89;102598.22;4912569;28;20058;-68
2021/10/23 03:45:57;;;;;;;2.50;1.02;;;;;;;7.63;76.58;102605.03;4916419;28;20035;-68
2021/10/23 03:48:23;;;;;;;5.15;1.10;;;;;;;7.67;76.23;102609.59;4911737;28;20456;-67
2021/10/23 03:50:49;;;;;;;7.00;1.40;;;;;;;7.71;76.42;102607.25;4904150;28;20047;-69
2021/10/23 03:53:14;;;;;;;5.88;1.38;;;;;;;7.73;76.66;102613.41;4915681;28;20054;-69
2021/10/23 03:55:39;;;;;;;6.25;1.25;;;;;;;7.81;76.67;102618.13;4889643;28;20203;-69
2021/10/23 03:58:05;;;;;;;7.60;1.40;;;;;;;7.85;76.80;102631.34;4909412;28;20523;-69
2021/10/23 04:00:31;;;;;;;3.97;1.27;;;;;;;7.90;76.86;102618.56;4914712;28;20050;-69
2021/10/23 04:02:56;;;;;;;7.30;1.30;;;;;;;7.92;76.94;102611.78;4901591;28;20484;-69
2021/10/23 04:05:22;;;;;;;4.50;1.13;;;;;;;7.96;76.89;102618.91;4922618;28;20109;-70
2021/10/23 04:07:47;;;;;;;4.22;0.98;;;;;;;7.97;76.78;102621.59;4895510;28;20045;-69
2021/10/23 04:10:13;;;;;;;4.90;1.30;;;;;;;7.93;76.59;102613.56;4916842;28;20101;-69
2021/10/23 04:12:38;;;;;;;3.25;1.00;;;;;;;7.89;76.51;102614.19;4908964;28;20063;-69
2021/10/23 04:15:04;;;;;;;3.60;1.02;;;;;;;7.84;76.35;102613.97;4882682;28;20047;-70
2021/10/23 04:17:30;;;;;;;5.15;1.30;;;;;;;7.84;76.35;102615.66;4908972;28;20065;-69
2021/10/23 04:19:55;;;;;;;8.38;1.00;;;;;;;7.83;76.33;102609.56;4902131;28;20697;-69
2021/10/23 04:22:21;;;;;;;3.65;1.25;;;;;;;7.87;76.44;102610.66;4919660;28;20050;-69
2021/10/23 04:24:47;;;;;;;4.47;1.17;;;;;;;7.90;76.54;102611.69;4914229;28;20679;-67
2021/10/23 04:27:13;;;;;;;3.15;1.00;;;;;;;7.94;76.96;102615.31;4907237;28;21986;-68
2021/10/23 04:29:38;;;;;;;5.80;1.27;;;;;;;7.95;77.32;102612.81;4908906;28;20047;-68
2021/10/23 04:32:04;;;;;;;4.85;1.15;;;;;;;7.99;76.95;102606.09;4920747;28;20047;-68
2021/10/23 04:34:30;;;;;;;4.50;1.42;;;;;;;8.00;77.09;102606.13;4937407;28;20107;-68
2021/10/23 04:36:55;;;;;;;5.10;1.70;;;;;;;8.06;77.02;102618.53;4905291;28;20079;-68
2021/10/23 04:39:21;;;;;;;5.93;1.40;;;;;;;8.13;76.84;102607.66;4919747;28;20039;-68
2021/10/23 04:41:46;;;;;;;4.30;1.30;;;;;;;8.27;76.80;102621.34;4886441;28;20044;-69
2021/10/23 04:44:11;;;;;;;6.13;1.30;;;;;;;8.38;76.97;102621.09;4909363;28;20359;-68
2021/10/23 04:46:37;;;;;;;7.13;1.45;;;;;;;8.46;77.04;102621.50;4912736;28;20733;-68
2021/10/23 04:49:02;;;;;;;6.70;1.83;;;;;;;8.54;77.10;102618.44;4909332;28;20031;-68
2021/10/23 04:51:27;;;;;;;6.65;1.38;;;;;;;8.63;76.56;102627.53;4920357;28;20127;-68
2021/10/23 04:53:53;;;;;;;10.10;2.00;;;;;;;8.67;76.69;102619.03;4912883;28;20525;-68
2021/10/23 04:56:19;;;;;;;5.93;1.50;;;;;;;8.72;76.54;102618.44;4916464;28;20511;-68
2021/10/23 04:58:45;;;;;;;8.63;1.70;;;;;;;8.76;76.63;102619.50;4908113;28;20043;-68
2021/10/23 05:01:11;;;;;;;4.82;1.52;;;;;;;8.72;76.50;102618.44;4898655;28;20109;-68
2021/10/23 05:03:37;;;;;;;4.82;1.38;;;;;;;8.70;76.02;102621.81;4916235;28;21380;-68
2021/10/23 05:06:02;;;;;;;7.50;1.73;;;;;;;8.63;75.91;102619.72;4918716;28;20043;-68
2021/10/23 05:08:27;;;;;;;4.00;1.40;;;;;;;8.52;75.59;102622.69;4914514;28;20038;-68
2021/10/23 05:10:53;;;;;;;5.30;1.50;;;;;;;8.45;75.49;102624.91;4906369;28;20053;-68
2021/10/23 05:13:19;;;;;;;5.82;1.70;;;;;;;8.39;75.22;102630.69;4902406;28;20054;-68
2021/10/23 05:15:44;;;;;;;6.32;1.90;;;;;;;8.36;75.34;102638.31;4879953;28;20558;-69
2021/10/23 05:18:09;;;;;;;6.72;1.77;;;;;;;8.39;75.77;102635.00;4911670;28;20047;-68
2021/10/23 05:20:35;;;;;;;5.78;1.88;;;;;;;8.45;75.72;102633.59;4925124;28;20082;-68
2021/10/23 05:23:00;;;;;;;9.10;2.00;;;;;;;8.62;76.41;102643.94;4901296;28;20047;-68
2021/10/23 05:25:26;;;;;;;5.47;1.80;;;;;;;8.75;76.24;102655.00;4897889;28;20051;-68
2021/10/23 05:27:51;;;;;;;9.40;2.17;;;;;;;8.85;76.81;102649.44;4916510;28;20043;-68
2021/10/23 05:30:16;;;;;;;5.10;1.70;;;;;;;8.95;76.82;102656.00;4907792;28;20047;-68
2021/10/23 05:32:42;;;;;;;9.02;2.00;;;;;;;9.03;76.82;102654.63;4913778;28;20043;-70
2021/10/23 05:35:08;;;;;;;5.90;2.03;;;;;;;9.10;76.68;102658.41;4909584;28;20564;-68
2021/10/23 05:37:34;;;;;;;6.13;1.95;;;;;;;9.17;76.54;102650.97;4917103;28;20043;-69
2021/10/23 05:39:59;;;;;;;10.20;2.50;;;;;;;9.23;76.72;102647.78;4909725;28;20412;-68
2021/10/23 05:42:24;;;;;;;9.48;2.72;;;;;;;9.28;76.91;102646.28;4916511;28;20091;-68
2021/10/23 05:44:50;;;;;;;10.02;2.75;;;;;;;9.32;76.51;102648.22;4910432;28;20126;-68
2021/10/23 05:47:15;;;;;;;8.10;2.22;;;;;;;9.43;76.74;102646.09;4902404;28;20067;-68
2021/10/23 05:49:41;;;;;;;8.85;2.53;;;;;;;9.48;76.89;102655.00;4925084;28;20096;-69
2021/10/23 05:52:06;;;;;;;12.95;2.88;;;;;;;9.48;76.65;102658.50;4917945;28;20063;-69
2021/10/23 05:54:37;;;;;;;8.00;2.42;;;;;;;9.57;76.46;102663.25;4918621;28;20145;-68
2021/10/23 05:57:07;;;;;;;7.72;2.70;;;;;;;9.64;76.87;102654.88;4901540;28;20598;-68
2021/10/23 05:59:33;;;;;;;9.07;2.60;;;;;;;9.62;76.40;102672.16;4909450;28;20550;-69
2021/10/23 06:02:09;;;;;;;9.65;2.50;;;;;;;9.66;76.48;102677.56;4911811;28;20039;-68
2021/10/23 06:04:36;;;;;;;8.77;2.50;;;;;;;9.68;76.16;102678.56;4918244;28;20049;-67
2021/10/23 06:07:02;;;;;;;9.15;2.13;;;;;;;9.70;76.41;102683.81;4901926;28;20042;-68
2021/10/23 06:09:27;;;;;;;6.25;2.40;;;;;;;9.73;76.44;102687.47;4902962;28;20624;-68
2021/10/23 06:11:59;;;;;;;6.97;2.58;;;;;;;9.75;76.36;102683.22;4900152;28;20870;-68
2021/10/23 06:14:25;;;;;;;10.38;2.80;;;;;;;9.83;76.32;102680.94;4897522;28;20050;-68
2021/10/23 06:16:50;;;;;;;8.18;2.53;;;;;;;9.86;76.31;102678.50;4912654;28;20098;-69
2021/10/23 06:19:15;;;;;;;8.30;2.70;;;;;;;9.89;76.38;102686.44;4913711;28;20800;-69
2021/10/23 06:21:41;;;;;;;9.45;2.63;;;;;;;9.95;76.13;102689.31;4911978;28;20118;-68
2021/10/23 06:24:06;;;;;;;7.47;2.38;;;;;;;10.01;76.35;102691.28;4915519;28;20544;-68
2021/10/23 06:26:31;;;;;;;8.63;2.55;;;;;;;10.02;76.30;102690.47;4906392;28;20039;-69
2021/10/23 06:28:57;;;;;;;11.27;2.72;;;;;;;10.03;76.95;102698.38;4910203;28;20073;-68
2021/10/23 06:31:22;;;;;;;8.02;2.92;;;;;;;10.14;76.70;102691.91;4909996;28;21038;-68
2021/10/23 06:33:47;;;;;;;13.13;2.90;;;;;;;10.20;76.35;102700.84;4916333;28;20036;-68
2021/10/23 06:36:13;;;;;;;12.23;2.97;;;;;;;10.24;76.76;102700.19;4913444;28;20039;-68
2021/10/23 06:38:38;;;;;;;11.10;3.00;;;;;;;10.26;76.54;102704.63;4907376;28;20138;-67
2021/10/23 08:44:13;;;;;;;24.20;8.70;;;;;;;11.96;76.84;102800.44;5007073;28;20546;-50
2021/10/23 08:46:40;;;;;;;15.85;9.25;;;;;;;12.25;75.42;102805.88;4956108;28;20039;-56
2021/10/23 08:49:06;;;;;;;19.25;9.40;;;;;;;12.36;75.33;102809.78;4935221;28;21698;-53
2021/10/23 08:51:33;;;;;;;18.58;9.10;;;;;;;12.50;74.72;102803.34;4957768;28;20533;-56
2021/10/23 08:53:58;;;;;;;17.65;9.00;;;;;;;12.47;74.80;102809.34;4956876;28;20493;-54
2021/10/23 08:56:24;;;;;;;18.60;9.23;;;;;;;12.54;74.53;102813.06;4964825;28;20450;-51
2021/10/23 08:58:49;;;;;;;16.35;8.55;;;;;;;12.57;74.22;102808.81;4954283;28;20066;-56
2021/10/23 09:01:15;;;;;;;18.88;8.45;;;;;;;12.63;74.25;102809.88;4958947;28;20101;-55
2021/10/23 09:03:42;;;;;;;19.42;8.73;;;;;;;12.70;73.72;102806.63;4958434;28;20046;-54
2021/10/23 09:06:21;;;;;;;18.42;8.65;;;;;;;12.75;73.79;102807.69;4956745;28;20466;-54
2021/10/23 09:09:09;;;;;;;14.60;8.07;;;;;;;12.79;73.75;102810.50;4953122;28;20060;-56
2021/10/23 09:11:39;;;;;;;15.23;7.93;;;;;;;12.80;73.62;102814.88;4959729;28;20395;-53
2021/10/23 09:14:32;;;;;;;15.27;8.23;;;;;;;12.88;73.50;102808.19;4972422;28;20038;-54
2021/10/23 09:17:11;;;;;;;14.02;7.47;;;;;;;12.96;73.16;102806.72;4949128;28;20038;-54
2021/10/23 09:19:48;;;;;;;15.27;7.88;;;;;;;12.97;72.90;102808.50;4957678;28;20858;-55
2021/10/23 09:22:26;;;;;;;16.77;7.63;;;;;;;13.04;73.30;102809.59;4947179;28;20055;-51
2021/10/23 09:24:53;;;;;;;16.73;7.13;;;;;;;13.11;72.72;102808.97;4929784;28;20059;-55
2021/10/23 09:27:19;;;;;;;13.35;6.60;;;;;;;13.15;72.27;102813.50;4937190;28;20075;-55
2021/10/23 09:29:53;;;;;;;11.25;5.97;;;;;;;13.18;72.02;102808.34;4935303;28;20672;-55
2021/10/23 09:32:18;;;;;;;12.82;6.85;;;;;;;13.23;72.01;102814.66;4942569;28;20380;-57
2021/10/23 09:34:44;;;;;;;13.73;6.38;;;;;;;13.32;71.82;102814.06;4935441;28;20382;-54
2021/10/23 09:37:09;;;;;;;12.38;6.22;;;;;;;13.31;71.56;102813.16;4933241;28;20535;-51
2021/10/23 09:39:35;;;;;;;9.02;6.15;;;;;;;13.37;71.36;102815.09;4941292;28;20046;-52
2021/10/23 09:42:19;;;;;;;10.85;5.82;;;;;;;13.38;71.36;102809.03;4933976;28;21046;-54
2021/10/23 09:45:04;;;;;;;10.55;6.10;;;;;;;13.48;71.36;102816.31;4935812;28;20042;-59
2021/10/23 09:47:31;;;;;;;;;;;;;;;13.61;71.36;102813.25;4936281;28;20098;-59
2021/10/23 09:50:14;;;;;;;9.05;5.60;;;;;;;13.66;70.19;102816.06;4927344;28;19926;-57
2021/10/23 09:53:00;;;;;;;12.13;5.80;;;;;;;13.80;69.84;102810.38;4934357;28;20284;-56
2021/10/23 09:55:31;;;;;;;10.65;6.20;;;;;;;13.89;70.46;102812.41;4930232;28;20538;-55
2021/10/23 09:58:25;;;;;;;11.55;5.78;;;;;;;13.95;69.89;102815.22;4924314;28;20062;-55
2021/10/23 10:00:54;;;;;;;12.27;5.80;;;;;;;14.04;69.03;102819.81;4924464;28;20047;-52
2021/10/23 10:03:24;;;;;;;10.00;6.32;;;;;;;14.05;68.38;102819.00;4924508;29;20199;-56
2021/10/23 10:05:57;;;;;;;10.85;6.80;;;;;;;14.05;68.56;102821.63;4928795;28;20044;-55
2021/10/23 10:08:23;;;;;;;12.32;6.80;;;;;;;14.11;68.34;102832.28;4927415;28;20093;-54
2021/10/23 10:10:49;;;;;;;12.90;6.93;;;;;;;14.07;68.87;102835.69;4920408;28;20039;-56
2021/10/23 10:13:22;;;;;;;12.85;7.30;;;;;;;13.93;70.13;102830.00;4920106;28;20052;-55
2021/10/23 10:15:50;;;;;;;13.88;7.50;;;;;;;13.86;70.50;102830.66;4924647;28;20054;-60
2021/10/23 10:18:17;;;;;;;14.30;8.23;;;;;;;13.90;70.22;102831.66;4925958;28;20456;-54
2021/10/23 10:20:46;;;;;;;16.52;8.77;;;;;;;13.89;69.07;102829.88;4924615;28;20047;-57
2021/10/23 10:23:16;;;;;;;14.07;8.05;;;;;;;13.95;68.28;102832.69;4922909;28;20574;-54
2021/10/23 10:25:42;;;;;;;12.15;8.05;;;;;;;14.04;68.38;102846.06;4929411;28;20067;-55
2021/10/23 10:28:12;;;;;;;17.77;9.30;;;;;;;14.00;69.29;102839.84;4923777;28;20615;-54
2021/10/23 10:30:39;;;;;;;16.05;9.32;;;;;;;13.97;69.41;102841.47;4926418;28;20483;-54
2021/10/23 10:33:38;;;;;;;16.30;9.75;;;;;;;14.01;69.76;102841.63;4926434;28;20237;-59
2021/10/23 10:44:15;;;;;;;22.30;11.65;;;;;;;13.96;69.41;102834.47;4928093;28;20047;-59
2021/10/23 10:47:07;;;;;;;20.48;11.38;;;;;;;14.12;68.92;102836.69;4932795;28;20378;-56
2021/10/23 10:49:54;;;;;;;21.42;12.63;;;;;;;14.08;69.06;102842.72;4941076;28;20616;-55
2021/10/23 10:52:50;;;;;;;23.63;12.63;;;;;;;14.16;69.15;102843.81;4942578;28;20296;-55
2021/10/23 10:55:17;;;;;;;20.00;12.98;;;;;;;14.27;67.99;102842.41;4917357;28;20054;-56
2021/10/23 10:57:59;;;;;;;21.90;13.35;;;;;;;14.17;69.00;102838.63;4934051;28;20074;-53
2021/10/23 11:00:52;;;;;;;24.00;14.18;;;;;;;14.22;68.62;102837.00;4923030;28;20043;-54
2021/10/23 11:03:36;;;;;;;24.20;14.65;;;;;;;14.20;69.36;102845.69;4927682;28;20523;-54
2021/10/23 11:06:39;;;;;;;22.48;14.20;;;;;;;14.20;68.97;102833.47;4922484;28;20047;-55
2021/10/23 11:09:07;;;;;;;26.38;14.43;;;;;;;14.16;68.92;102833.31;4923162;28;20047;-54
2021/10/23 11:11:57;;;;;;;21.23;13.38;;;;;;;14.17;68.67;102836.00;4925668;28;20475;-57
2021/10/23 11:14:23;;;;;;;23.02;14.27;;;;;;;14.21;68.39;102829.09;4925534;28;20046;-56
2021/10/23 11:16:55;;;;;;;24.00;13.80;;;;;;;14.21;69.19;102826.47;4921001;28;20336;-56
2021/10/23 11:19:21;;;;;;;25.58;14.00;;;;;;;14.26;68.95;102824.88;4923175;29;20044;-55
2021/10/23 11:21:50;;;;;;;21.52;13.25;;;;;;;14.36;68.08;102824.31;4942636;28;20039;-55
2021/10/23 11:24:15;;;;;;;22.67;13.32;;;;;;;14.37;68.18;102819.94;4904905;29;20051;-55
2021/10/23 11:26:50;;;;;;;23.50;14.13;;;;;;;14.41;68.33;102820.09;4924755;28;20081;-54
2021/10/23 11:29:27;;;;;;;23.70;13.35;;;;;;;14.45;68.62;102826.34;4921880;28;20047;-53
2021/10/23 11:31:53;;;;;;;21.52;12.55;;;;;;;14.53;68.22;102823.06;4928616;28;20040;-56
2021/10/23 11:34:39;;;;;;;21.17;12.60;;;;;;;14.49;68.24;102822.94;4924556;28;20656;-54
2021/10/23 11:37:11;;;;;;;21.05;12.15;;;;;;;14.55;67.30;102826.63;4914253;28;20316;-54
2021/10/23 11:40:02;;;;;;;21.95;12.52;;;;;;;14.43;68.86;102823.66;4928551;28;20575;-55
2021/10/23 11:42:30;;;;;;;23.05;12.40;;;;;;;14.48;68.90;102829.03;4922747;28;20395;-55
2021/10/23 11:44:56;;;;;;;19.60;11.15;;;;;;;14.57;68.58;102829.31;4917745;28;20593;-57
2021/10/23 11:47:29;;;;;;;21.58;11.95;;;;;;;14.56;68.49;102828.44;4921593;28;20165;-54
2021/10/23 11:49:59;;;;;;;19.85;11.05;;;;;;;14.67;68.32;102827.81;4924372;28;20047;-55
2021/10/23 11:52:28;;;;;;;17.95;11.68;;;;;;;14.67;68.14;102828.72;4924685;28;20153;-54
2021/10/23 11:54:54;;;;;;;18.45;11.30;;;;;;;14.70;68.11;102831.41;4915390;28;20058;-52
2021/10/23 11:57:33;;;;;;;21.02;11.00;;;;;;;14.75;67.43;102824.56;4921998;28;20464;-54
2021/10/23 12:00:00;;;;;;;18.48;10.18;;;;;;;14.84;66.83;102826.53;4921499;28;20061;-52
2021/10/23 12:02:39;;;;;;;18.00;10.77;;;;;;;14.88;66.99;102826.66;4926989;28;20117;-55
2021/10/23 12:05:28;;;;;;;19.30;9.90;;;;;;;14.94;67.01;102832.06;4915656;28;21381;-56
2021/10/23 12:08:18;;;;;;;17.27;9.00;;;;;;;14.93;66.49;102829.44;4921120;29;20070;-54
2021/10/23 12:11:03;;;;;;;17.55;9.10;;;;;;;15.03;66.76;102834.97;4919697;28;20078;-55
2021/10/23 12:13:30;;;;;;;14.48;8.82;;;;;;;15.01;67.54;102838.38;4923694;28;20130;-56
2021/10/23 12:16:03;;;;;;;14.88;8.95;;;;;;;15.07;66.98;102829.75;4923477;28;20780;-53
2021/10/23 12:18:40;;;;;;;15.43;8.93;;;;;;;14.93;68.31;102832.94;4936513;28;20459;-57
2021/10/23 12:21:24;;;;;;;16.27;8.20;;;;;;;15.11;65.85;102831.63;4922879;28;20331;-52
2021/10/23 12:23:51;;;;;;;14.67;7.90;;;;;;;15.21;65.46;102837.16;4926526;28;20047;-57
2021/10/23 12:26:27;;;;;;;12.82;7.47;;;;;;;15.25;64.60;102833.75;4916883;29;20229;-57
2021/10/23 12:29:04;;;;;;;10.75;6.70;;;;;;;15.27;64.98;102833.78;4933637;28;20039;-50
2021/10/23 12:31:58;;;;;;;9.02;6.63;;;;;;;15.28;65.25;102823.34;4922519;28;20047;-55
2021/10/23 12:34:49;;;;;;;12.30;7.30;;;;;;;15.19;65.20;102820.47;4924158;28;20035;-57
2021/10/23 12:37:28;;;;;;;12.70;7.40;;;;;;;15.21;64.60;102817.88;4916952;29;21055;-51
2021/10/23 12:40:06;;;;;;;13.25;7.60;;;;;;;15.20;64.63;102813.47;4927293;28;20513;-55
2021/10/23 12:42:36;;;;;;;12.18;7.55;;;;;;;15.23;64.46;102814.47;4923630;28;20078;-54
2021/10/23 12:45:04;;;;;;;10.73;7.25;;;;;;;15.13;66.33;102809.78;4916314;28;20817;-56
2021/10/23 12:47:29;;;;;;;13.90;7.90;;;;;;;15.12;66.36;102805.41;4923068;28;20114;-56
2021/10/23 12:49:55;;;;;;;13.27;8.63;;;;;;;15.01;66.39;102817.38;4941961;28;20546;-57
2021/10/23 12:52:20;;;;;;;13.55;8.10;;;;;;;14.95;66.60;102818.09;4924903;28;20047;-57
2021/10/23 12:54:45;;;;;;;16.25;9.05;;;;;;;14.74;67.25;102814.03;4922626;28;20139;-56
2021/10/23 12:57:11;;;;;;;16.83;8.68;;;;;;;14.80;66.86;102803.69;4920867;28;20115;-56
2021/10/23 12:59:36;;;;;;;14.45;8.85;;;;;;;14.73;66.73;102812.25;4924655;28;20076;-53
2021/10/23 13:02:02;;;;;;;12.27;8.60;;;;;;;14.74;66.90;102809.66;4925494;28;20094;-55
2021/10/23 13:04:27;;;;;;;16.88;9.13;;;;;;;14.71;67.51;102806.03;4923992;28;20031;-54
2021/10/23 13:06:52;;;;;;;13.82;9.77;;;;;;;14.60;68.79;102808.38;4922500;28;20495;-53
2021/10/23 13:09:18;;;;;;;15.05;9.18;;;;;;;14.60;68.18;102817.16;4923368;28;20610;-50
2021/10/23 13:11:43;;;;;;;14.65;9.25;;;;;;;14.65;67.70;102806.78;4923407;29;20400;-54
2021/10/23 13:14:09;;;;;;;20.58;9.35;;;;;;;14.69;67.43;102806.03;4924680;28;20047;-55
2021/10/23 13:16:34;;;;;;;17.23;9.80;;;;;;;14.67;67.65;102810.34;4922318;28;20062;-55
2021/10/23 13:19:00;;;;;;;14.93;9.70;;;;;;;14.71;67.40;102811.28;4921216;28;20434;-56
2021/10/23 13:21:25;;;;;;;16.08;10.07;;;;;;;14.69;67.71;102807.75;4926133;28;20130;-56
2021/10/23 13:23:51;;;;;;;15.80;9.60;;;;;;;14.70;67.56;102813.03;4925927;29;20034;-55
2021/10/23 13:26:16;;;;;;;17.20;10.13;;;;;;;14.74;67.65;102806.16;4922768;28;20337;-56
2021/10/23 13:28:44;;;;;;;17.25;10.50;;;;;;;14.71;68.46;102795.53;4922716;28;20046;-57
2021/10/23 13:31:11;;;;;;;16.27;10.18;;;;;;;14.69;68.15;102797.25;4922435;28;20534;-54
2021/10/23 13:33:36;;;;;;;17.05;10.32;;;;;;;14.57;69.49;102800.44;4926791;28;20326;-55
2021/10/23 13:36:02;;;;;;;17.92;10.70;;;;;;;14.50;69.41;102801.13;4928758;28;20047;-55
2021/10/23 13:38:27;;;;;;;16.50;11.43;;;;;;;14.57;69.24;102797.81;4926542;28;20043;-53
2021/10/23 13:40:53;;;;;;;21.20;10.70;;;;;;;14.57;68.58;102797.81;4924853;28;20066;-56
2021/10/23 13:43:20;;;;;;;16.75;10.98;;;;;;;14.53;69.10;102802.06;4924955;28;20055;-55